createdAt,value
2023-04-21T00:02:17.512Z,7.97
2023-04-21T00:05:23.732Z,7.28
2023-04-21T00:08:29.963Z,7.13
2023-04-21T00:11:36.201Z,7.58
2023-04-21T00:14:43.717Z,7.67
2023-04-21T00:17:49.996Z,7.54
2023-04-21T00:20:56.429Z,7.63
2023-04-21T00:24:03.009Z,7.35
2023-04-21T00:27:08.929Z,6.84
2023-04-21T00:30:16.795Z,7.00
2023-04-21T00:33:22.967Z,6.72
2023-04-21T00:36:29.340Z,6.96
2023-04-21T00:39:35.320Z,7.26
2023-04-21T00:42:41.340Z,7.19
2023-04-21T00:45:48.614Z,7.12
2023-04-21T00:48:54.799Z,7.21
2023-04-21T00:52:01.107Z,6.99
2023-04-21T00:55:08.594Z,7.02
2023-04-21T00:58:14.797Z,6.91
2023-04-21T01:01:22.857Z,6.86
2023-04-21T01:04:35.570Z,6.93
2023-04-21T01:07:41.699Z,6.71
2023-04-21T01:10:47.734Z,6.77
2023-04-21T01:13:54.605Z,6.33
2023-04-21T01:17:05.386Z,6.26
2023-04-21T01:20:13.632Z,5.50
2023-04-21T01:23:21.374Z,5.28
2023-04-21T01:26:27.585Z,5.23
2023-04-21T01:29:35.018Z,5.28
2023-04-21T01:32:41.048Z,5.60
2023-04-21T01:35:47.302Z,6.14
2023-04-21T01:38:54.987Z,5.60
2023-04-21T01:42:01.413Z,4.91
2023-04-21T01:45:08.949Z,5.26
2023-04-21T01:48:15.531Z,5.37
2023-04-21T01:51:21.817Z,5.53
2023-04-21T01:54:29.179Z,5.69
2023-04-21T01:57:35.585Z,5.78
2023-04-21T02:00:41.962Z,4.81
2023-04-21T02:03:48.518Z,5.58
2023-04-21T02:06:55.077Z,5.36
2023-04-21T02:10:03.053Z,5.64
2023-04-21T02:13:09.252Z,4.94
2023-04-21T02:16:15.505Z,5.14
2023-04-21T02:19:22.000Z,5.24
2023-04-21T02:22:28.317Z,5.31
2023-04-21T02:25:35.607Z,5.26
2023-04-21T02:28:41.842Z,4.93
2023-04-21T02:32:00.847Z,5.06
2023-04-21T02:35:11.699Z,4.36
2023-04-21T02:38:17.431Z,5.28
2023-04-21T02:41:24.819Z,5.30
2023-04-21T02:44:31.302Z,5.23
2023-04-21T02:47:37.231Z,5.38
2023-04-21T02:50:44.535Z,5.34
2023-04-21T02:53:50.782Z,5.12
2023-04-21T02:56:58.512Z,4.99
2023-04-21T03:00:06.090Z,5.14
2023-04-21T03:03:12.394Z,4.42
2023-04-21T03:06:18.764Z,3.93
2023-04-21T03:09:24.967Z,3.60
2023-04-21T03:12:32.613Z,3.66
2023-04-21T03:15:38.961Z,3.77
2023-04-21T03:18:45.109Z,3.89
2023-04-21T03:21:51.318Z,3.93
2023-04-21T03:24:57.714Z,3.28
2023-04-21T03:28:05.254Z,3.26
2023-04-21T03:31:11.298Z,4.21
2023-04-21T03:34:17.354Z,3.49
2023-04-21T03:37:23.335Z,4.08
2023-04-21T03:40:30.182Z,3.92
2023-04-21T03:43:37.945Z,4.15
2023-04-21T03:46:44.276Z,4.31
2023-04-21T03:49:50.508Z,4.54
2023-04-21T03:52:56.860Z,4.31
2023-04-21T03:56:03.147Z,3.95
2023-04-21T03:59:10.879Z,4.35
2023-04-21T04:02:17.293Z,3.33
2023-04-21T04:05:23.654Z,3.02
2023-04-21T04:08:29.797Z,3.23
2023-04-21T04:11:36.352Z,3.68
2023-04-21T04:14:43.876Z,4.21
2023-04-21T04:17:50.466Z,4.57
2023-04-21T04:20:56.908Z,4.52
2023-04-21T04:24:05.365Z,4.76
2023-04-21T04:27:14.044Z,4.30
2023-04-21T04:30:21.607Z,4.71
2023-04-21T04:33:27.585Z,5.39
2023-04-21T04:36:33.669Z,5.11
2023-04-21T04:39:40.046Z,5.03
2023-04-21T04:42:48.977Z,5.04
2023-04-21T04:45:56.782Z,5.34
2023-04-21T04:49:03.302Z,5.37
2023-04-21T04:52:09.526Z,5.85
2023-04-21T04:55:15.524Z,5.82
2023-04-21T04:58:22.332Z,5.69
2023-04-21T05:01:31.083Z,6.48
2023-04-21T05:04:37.602Z,7.01
2023-04-21T05:07:43.718Z,7.13
2023-04-21T05:10:50.061Z,7.46
2023-04-21T05:13:56.773Z,7.86
2023-04-21T05:17:04.344Z,7.81
2023-04-21T05:20:11.527Z,8.28
2023-04-21T05:23:17.622Z,8.55
2023-04-21T05:26:24.040Z,8.58
2023-04-21T05:29:30.320Z,8.85
2023-04-21T05:32:37.740Z,9.00
2023-04-21T05:35:44.072Z,9.04
2023-04-21T05:38:50.410Z,9.83
2023-04-21T05:41:56.561Z,9.90
2023-04-21T05:45:02.774Z,9.94
2023-04-21T05:48:12.277Z,10.42
2023-04-21T05:51:19.558Z,10.35
2023-04-21T05:54:25.642Z,10.97
2023-04-21T05:57:31.627Z,11.35
2023-04-21T06:00:37.812Z,11.69
2023-04-21T06:03:45.476Z,11.69
2023-04-21T06:06:51.497Z,11.27
2023-04-21T06:09:58.073Z,11.29
2023-04-21T06:13:04.121Z,11.47
2023-04-21T06:16:10.216Z,12.18
2023-04-21T06:19:17.720Z,12.36
2023-04-21T06:22:24.081Z,11.23
2023-04-21T06:25:30.372Z,12.01
2023-04-21T06:28:39.350Z,12.10
2023-04-21T06:31:45.831Z,12.17
2023-04-21T06:34:53.439Z,12.88
2023-04-21T06:37:59.695Z,12.94
2023-04-21T06:41:06.672Z,13.07
2023-04-21T06:44:14.280Z,13.29
2023-04-21T06:47:20.650Z,12.88
2023-04-21T06:50:28.394Z,12.94
2023-04-21T06:53:34.487Z,12.93
2023-04-21T06:56:42.965Z,13.50
2023-04-21T06:59:49.254Z,13.79
2023-04-21T07:02:55.412Z,14.02
2023-04-21T07:06:03.001Z,14.21
2023-04-21T07:09:09.261Z,14.02
2023-04-21T07:12:16.109Z,13.35
2023-04-21T07:15:22.192Z,14.26
2023-04-21T07:18:28.075Z,15.45
2023-04-21T07:21:36.408Z,15.01
2023-04-21T07:24:42.639Z,15.14
2023-04-21T07:27:48.917Z,14.99
2023-04-21T07:30:54.963Z,15.76
2023-04-21T07:34:01.091Z,15.84
2023-04-21T07:37:08.707Z,15.03
2023-04-21T07:40:15.327Z,15.41
2023-04-21T07:43:21.613Z,15.94
2023-04-21T07:46:30.558Z,15.93
2023-04-21T07:49:36.928Z,15.49
2023-04-21T07:52:44.842Z,15.30
2023-04-21T07:55:51.109Z,15.60
2023-04-21T07:58:57.681Z,15.59
2023-04-21T08:02:04.156Z,15.58
2023-04-21T08:05:10.778Z,16.00
2023-04-21T08:08:20.559Z,15.89
2023-04-21T08:11:28.641Z,16.46
2023-04-21T08:14:35.058Z,16.30
2023-04-21T08:17:41.478Z,16.49
2023-04-21T08:20:48.205Z,16.17
2023-04-21T08:23:56.603Z,16.54
2023-04-21T08:27:03.556Z,17.27
2023-04-21T08:30:11.388Z,16.47
2023-04-21T08:33:17.913Z,16.58
2023-04-21T08:36:29.536Z,16.40
2023-04-21T08:39:38.100Z,17.02
2023-04-21T08:42:44.846Z,16.88
2023-04-21T08:45:54.397Z,17.25
2023-04-21T08:49:01.508Z,17.55
2023-04-21T08:52:08.162Z,16.95
2023-04-21T08:55:16.883Z,16.76
2023-04-21T08:58:23.868Z,16.79
2023-04-21T09:01:30.421Z,17.34
2023-04-21T09:04:36.818Z,16.99
2023-04-21T09:07:43.118Z,17.64
2023-04-21T09:10:53.201Z,18.30
2023-04-21T09:14:01.493Z,18.39
2023-04-21T09:17:07.868Z,18.59
2023-04-21T09:20:16.655Z,18.54
2023-04-21T09:23:23.216Z,18.58
2023-04-21T09:26:31.857Z,18.59
2023-04-21T09:29:38.866Z,18.59
2023-04-21T09:32:44.965Z,18.32
2023-04-21T09:35:51.572Z,19.77
2023-04-21T09:42:12.687Z,19.03
2023-04-21T09:48:33.368Z,19.30
2023-04-21T09:52:05.395Z,20.82
2023-04-21T09:55:12.766Z,18.94
2023-04-21T09:58:24.868Z,19.46
2023-04-21T10:01:32.238Z,20.04
2023-04-21T10:04:39.386Z,18.61
2023-04-21T10:07:46.993Z,18.79
2023-04-21T10:10:54.639Z,18.19
2023-04-21T10:14:02.309Z,17.70
2023-04-21T10:17:10.237Z,18.17
2023-04-21T10:20:17.212Z,17.60
2023-04-21T10:23:31.902Z,18.25
2023-04-21T10:26:38.065Z,19.67
2023-04-21T10:29:56.150Z,18.79
2023-04-21T10:33:04.847Z,18.89
2023-04-21T10:36:15.843Z,19.28
2023-04-21T10:39:31.527Z,20.46
2023-04-21T10:42:38.173Z,19.02
2023-04-21T10:45:47.239Z,19.81
2023-04-21T10:48:54.290Z,18.20
2023-04-21T10:52:12.383Z,19.16
2023-04-21T10:55:18.958Z,19.72
2023-04-21T10:58:26.093Z,19.27
2023-04-21T11:01:33.907Z,20.35
2023-04-21T11:04:45.466Z,21.05
2023-04-21T11:07:52.770Z,20.59
2023-04-21T11:10:58.875Z,20.51
2023-04-21T11:14:04.885Z,19.55
2023-04-21T11:17:14.851Z,19.59
2023-04-21T11:20:21.132Z,19.32
2023-04-21T11:23:27.320Z,21.27
2023-04-21T11:26:34.936Z,21.07
2023-04-21T11:29:41.543Z,19.50
2023-04-21T11:32:55.833Z,20.68
2023-04-21T11:36:05.818Z,20.61
2023-04-21T11:39:15.894Z,20.69
2023-04-21T11:42:23.470Z,20.75
2023-04-21T11:45:30.601Z,19.79
2023-04-21T11:48:38.384Z,19.45
2023-04-21T11:51:46.962Z,18.59
2023-04-21T11:54:57.996Z,20.48
2023-04-21T11:58:04.636Z,20.58
2023-04-21T12:01:12.086Z,20.30
2023-04-21T12:04:21.526Z,20.04
2023-04-21T12:07:27.609Z,19.92
2023-04-21T12:10:34.133Z,19.75
2023-04-21T12:13:41.993Z,19.42
2023-04-21T12:16:50.404Z,19.99
2023-04-21T12:20:06.142Z,19.76
2023-04-21T12:23:12.317Z,18.73
2023-04-21T12:26:18.612Z,20.00
2023-04-21T12:29:24.707Z,20.00
2023-04-21T12:32:31.012Z,19.20
2023-04-21T12:35:39.230Z,19.37
2023-04-21T12:38:45.809Z,19.21
2023-04-21T12:41:52.589Z,20.38
2023-04-21T12:44:58.926Z,19.38
2023-04-21T12:48:05.588Z,19.52
2023-04-21T12:51:13.550Z,19.39
2023-04-21T12:54:20.073Z,20.17
2023-04-21T12:57:26.604Z,19.11
2023-04-21T13:00:35.225Z,19.50
2023-04-21T13:03:41.888Z,20.07
2023-04-21T13:06:49.808Z,19.01
2023-04-21T13:09:56.236Z,18.60
2023-04-21T13:13:02.415Z,18.48
2023-04-21T13:16:09.288Z,19.39
2023-04-21T13:19:15.649Z,18.30
2023-04-21T13:22:23.712Z,18.35
2023-04-21T13:25:30.207Z,18.82
2023-04-21T13:28:36.473Z,18.39
2023-04-21T13:31:42.617Z,18.47
2023-04-21T13:34:48.827Z,18.19
2023-04-21T13:37:56.457Z,18.00
2023-04-21T13:41:02.507Z,18.33
2023-04-21T13:44:08.802Z,18.04
2023-04-21T13:47:14.943Z,18.46
2023-04-21T13:50:21.430Z,18.21
2023-04-21T13:53:29.759Z,19.52
2023-04-21T13:56:36.299Z,19.55
2023-04-21T13:59:42.708Z,18.71
2023-04-21T14:02:49.534Z,19.17
2023-04-21T14:05:57.168Z,19.66
2023-04-21T14:09:06.575Z,17.74
2023-04-21T14:12:13.089Z,17.57
2023-04-21T14:15:19.443Z,17.36
2023-04-21T14:18:25.891Z,17.08
2023-04-21T14:21:32.782Z,17.30
2023-04-21T14:24:41.104Z,17.73
2023-04-21T14:27:47.388Z,17.31
2023-04-21T14:30:53.497Z,17.13
2023-04-21T14:33:59.573Z,18.30
2023-04-21T14:37:05.996Z,18.00
2023-04-21T14:40:14.418Z,18.37
2023-04-21T14:43:20.587Z,18.10
2023-04-21T14:46:29.228Z,18.79
2023-04-21T14:49:36.252Z,18.89
2023-04-21T14:52:42.891Z,17.75
2023-04-21T14:55:51.435Z,17.67
2023-04-21T14:58:58.602Z,17.30
2023-04-21T15:02:05.499Z,17.22
2023-04-21T15:05:12.312Z,17.31
2023-04-21T15:08:18.539Z,17.31
2023-04-21T15:11:27.024Z,17.10
2023-04-21T15:14:33.626Z,17.22
2023-04-21T15:17:39.982Z,17.32
2023-04-21T15:20:46.306Z,17.09
2023-04-21T15:23:52.181Z,16.88
2023-04-21T15:26:59.904Z,16.74
2023-04-21T15:30:07.161Z,16.89
2023-04-21T15:33:13.393Z,17.04
2023-04-21T15:36:19.757Z,16.82
2023-04-21T15:39:25.896Z,16.84
2023-04-21T15:42:33.788Z,16.80
2023-04-21T15:45:41.134Z,16.90
2023-04-21T15:48:47.389Z,17.07
2023-04-21T15:51:53.653Z,17.13
2023-04-21T15:54:59.926Z,17.14
2023-04-21T15:58:07.629Z,17.28
2023-04-21T16:01:14.115Z,17.10
2023-04-21T16:04:20.726Z,17.09
2023-04-21T16:07:28.586Z,17.08
2023-04-21T16:10:34.780Z,16.93
2023-04-21T16:13:42.673Z,17.03
2023-04-21T16:16:49.091Z,16.67
2023-04-21T16:19:55.370Z,16.80
2023-04-21T16:23:01.799Z,16.73
2023-04-21T16:26:09.262Z,16.68
2023-04-21T16:29:17.018Z,16.14
2023-04-21T16:32:23.543Z,16.13
2023-04-21T16:35:29.912Z,15.92
2023-04-21T16:38:36.112Z,15.64
2023-04-21T16:41:42.097Z,15.65
2023-04-21T16:44:50.882Z,15.46
2023-04-21T16:47:57.541Z,15.47
2023-04-21T16:51:03.976Z,15.60
2023-04-21T16:54:10.038Z,15.36
2023-04-21T16:57:16.720Z,15.05
2023-04-21T17:00:24.818Z,14.82
2023-04-21T17:03:31.612Z,14.76
2023-04-21T17:06:37.975Z,14.73
2023-04-21T17:09:44.519Z,14.52
2023-04-21T17:12:51.088Z,14.69
2023-04-21T17:15:59.289Z,14.37
2023-04-21T17:19:05.741Z,14.20
2023-04-21T17:22:12.108Z,14.27
2023-04-21T17:25:18.362Z,14.03
2023-04-21T17:28:24.780Z,14.03
2023-04-21T17:31:33.966Z,14.01
2023-04-21T17:34:40.545Z,13.80
2023-04-21T17:37:46.979Z,13.35
2023-04-21T17:40:53.640Z,12.51
2023-04-21T17:44:01.035Z,12.34
2023-04-21T17:47:09.481Z,12.69
2023-04-21T17:50:16.045Z,12.75
2023-04-21T17:53:22.568Z,12.39
2023-04-21T17:56:29.053Z,12.53
2023-04-21T17:59:35.427Z,12.14
2023-04-21T18:02:42.846Z,12.17
2023-04-21T18:05:49.094Z,12.02
2023-04-21T18:08:55.987Z,11.93
2023-04-21T18:12:02.019Z,11.86
2023-04-21T18:15:10.548Z,11.98
2023-04-21T18:18:18.051Z,11.44
2023-04-21T18:21:24.656Z,11.55
2023-04-21T18:24:30.933Z,11.55
2023-04-21T18:27:37.192Z,11.33
2023-04-21T18:30:44.073Z,11.06
2023-04-21T18:33:51.798Z,10.88
2023-04-21T18:36:58.392Z,11.28
2023-04-21T18:40:05.684Z,11.07
2023-04-21T18:43:12.182Z,11.04
2023-04-21T18:46:18.387Z,11.01
2023-04-21T18:49:26.480Z,11.06
2023-04-21T18:52:32.666Z,11.04
2023-04-21T18:55:39.053Z,11.02
2023-04-21T18:58:45.613Z,10.61
2023-04-21T19:01:52.163Z,10.33
2023-04-21T19:04:59.949Z,10.87
2023-04-21T19:08:06.647Z,11.23
2023-04-21T19:11:14.550Z,10.45
2023-04-21T19:14:20.880Z,10.85
2023-04-21T19:17:27.167Z,10.61
2023-04-21T19:20:35.926Z,10.61
2023-04-21T19:23:42.332Z,10.81
2023-04-21T19:26:48.517Z,10.77
2023-04-21T19:29:54.640Z,10.83
2023-04-21T19:33:00.617Z,10.95
2023-04-21T19:36:08.155Z,10.95
2023-04-21T19:39:14.416Z,10.94
2023-04-21T19:42:20.382Z,10.87
2023-04-21T19:45:27.402Z,10.77
2023-04-21T19:48:33.405Z,10.35
2023-04-21T19:51:41.226Z,10.03
2023-04-21T19:54:47.220Z,9.69
2023-04-21T19:57:53.285Z,10.01
2023-04-21T20:00:59.683Z,10.07
2023-04-21T20:04:06.919Z,9.83
2023-04-21T20:07:14.966Z,10.06
2023-04-21T20:10:22.130Z,10.16
2023-04-21T20:13:27.930Z,10.31
2023-04-21T20:16:34.391Z,9.86
2023-04-21T20:19:40.868Z,9.74
2023-04-21T20:22:48.963Z,9.23
2023-04-21T20:25:55.088Z,9.05
2023-04-21T20:29:01.080Z,9.40
2023-04-21T20:32:07.130Z,9.21
2023-04-21T20:35:16.860Z,9.42
2023-04-21T20:38:25.104Z,9.86
2023-04-21T20:41:31.442Z,9.98
2023-04-21T20:44:38.814Z,9.76
2023-04-21T20:47:45.282Z,8.55
2023-04-21T20:50:51.512Z,8.58
2023-04-21T20:53:59.610Z,8.59
2023-04-21T20:57:07.653Z,8.81
2023-04-21T21:00:14.498Z,8.31
2023-04-21T21:03:21.033Z,8.70
2023-04-21T21:06:27.514Z,9.11
2023-04-21T21:09:35.059Z,9.28
2023-04-21T21:12:41.572Z,9.30
2023-04-21T21:15:47.859Z,9.43
2023-04-21T21:18:53.858Z,9.16
2023-04-21T21:22:00.178Z,8.74
2023-04-21T21:25:08.166Z,8.98
2023-04-21T21:28:14.554Z,8.73
2023-04-21T21:31:20.788Z,9.00
2023-04-21T21:34:26.998Z,9.61
2023-04-21T21:37:33.549Z,9.79
2023-04-21T21:40:41.137Z,9.89
2023-04-21T21:43:47.056Z,9.82
2023-04-21T21:46:53.096Z,8.71
2023-04-21T21:49:59.259Z,9.08
2023-04-21T21:53:05.349Z,9.53
2023-04-21T21:56:13.450Z,9.53
2023-04-21T21:59:19.315Z,9.70
2023-04-21T22:02:25.706Z,9.38
2023-04-21T22:05:31.682Z,9.40
2023-04-21T22:08:37.940Z,9.17
2023-04-21T22:11:46.312Z,9.02
2023-04-21T22:14:53.037Z,9.36
2023-04-21T22:17:59.258Z,9.30
2023-04-21T22:21:05.852Z,9.35
2023-04-21T22:24:12.265Z,9.49
2023-04-21T22:27:20.075Z,9.40
2023-04-21T22:30:26.980Z,9.41
2023-04-21T22:33:33.028Z,8.81
2023-04-21T22:36:39.159Z,8.07
2023-04-21T22:39:45.998Z,8.04
2023-04-21T22:42:53.337Z,8.68
2023-04-21T22:46:00.353Z,9.03
2023-04-21T22:49:06.808Z,9.02
2023-04-21T22:52:12.973Z,9.06
2023-04-21T22:55:19.352Z,9.03
2023-04-21T22:58:27.487Z,8.94
2023-04-21T23:01:33.451Z,8.81
2023-04-21T23:04:39.795Z,8.31
2023-04-21T23:07:46.117Z,8.40
2023-04-21T23:10:52.867Z,8.48
2023-04-21T23:14:00.358Z,7.85
2023-04-21T23:17:06.699Z,7.69
2023-04-21T23:20:13.465Z,7.48
2023-04-21T23:23:20.203Z,7.66
2023-04-21T23:26:26.484Z,7.97
2023-04-21T23:29:33.859Z,8.30
2023-04-21T23:32:40.243Z,8.57
2023-04-21T23:35:46.463Z,8.63
2023-04-21T23:38:52.578Z,8.59
2023-04-21T23:41:58.953Z,8.64
2023-04-21T23:45:08.019Z,8.71
2023-04-21T23:48:14.030Z,8.67
2023-04-21T23:51:20.428Z,8.40
2023-04-21T23:54:26.690Z,8.63
2023-04-21T23:57:32.726Z,8.30
